sensor_id;sensor_type;location;lat;lon;timestamp;temperature;humidity
78779;DHT22;68121;52.404;5.318;2023-04-15T00:00:28;10.00;55.40
78779;DHT22;68121;52.404;5.318;2023-04-15T00:02:54;10.00;55.50
78779;DHT22;68121;52.404;5.318;2023-04-15T00:05:20;10.00;55.50
78779;DHT22;68121;52.404;5.318;2023-04-15T00:07:46;9.90;55.60
78779;DHT22;68121;52.404;5.318;2023-04-15T00:10:13;10.00;55.70
78779;DHT22;68121;52.404;5.318;2023-04-15T00:12:41;10.00;55.70
78779;DHT22;68121;52.404;5.318;2023-04-15T00:15:08;9.90;55.70
78779;DHT22;68121;52.404;5.318;2023-04-15T00:17:34;9.90;55.90
78779;DHT22;68121;52.404;5.318;2023-04-15T00:20:01;9.90;55.90
78779;DHT22;68121;52.404;5.318;2023-04-15T00:22:27;9.90;56.10
78779;DHT22;68121;52.404;5.318;2023-04-15T00:24:53;9.80;56.10
78779;DHT22;68121;52.404;5.318;2023-04-15T00:27:19;9.80;56.10
78779;DHT22;68121;52.404;5.318;2023-04-15T00:29:45;9.80;56.20
78779;DHT22;68121;52.404;5.318;2023-04-15T00:32:11;9.70;56.20
78779;DHT22;68121;52.404;5.318;2023-04-15T00:34:38;9.70;56.20
78779;DHT22;68121;52.404;5.318;2023-04-15T00:37:04;9.70;56.30
78779;DHT22;68121;52.404;5.318;2023-04-15T00:39:30;9.70;56.40
78779;DHT22;68121;52.404;5.318;2023-04-15T00:41:56;9.60;56.50
78779;DHT22;68121;52.404;5.318;2023-04-15T00:44:22;9.60;56.60
78779;DHT22;68121;52.404;5.318;2023-04-15T00:46:50;9.60;56.60
78779;DHT22;68121;52.404;5.318;2023-04-15T00:49:16;9.50;56.70
78779;DHT22;68121;52.404;5.318;2023-04-15T00:51:44;9.50;56.80
78779;DHT22;68121;52.404;5.318;2023-04-15T00:54:10;9.50;56.90
78779;DHT22;68121;52.404;5.318;2023-04-15T00:56:37;9.40;57.00
78779;DHT22;68121;52.404;5.318;2023-04-15T00:59:05;9.40;57.20
78779;DHT22;68121;52.404;5.318;2023-04-15T01:01:33;9.40;57.20
78779;DHT22;68121;52.404;5.318;2023-04-15T01:04:00;9.40;57.30
78779;DHT22;68121;52.404;5.318;2023-04-15T01:06:26;9.40;57.40
78779;DHT22;68121;52.404;5.318;2023-04-15T01:08:54;9.30;57.40
78779;DHT22;68121;52.404;5.318;2023-04-15T01:11:20;9.30;57.50
78779;DHT22;68121;52.404;5.318;2023-04-15T01:13:50;9.20;57.60
78779;DHT22;68121;52.404;5.318;2023-04-15T01:16:17;9.20;57.70
78779;DHT22;68121;52.404;5.318;2023-04-15T01:18:44;9.20;57.70
78779;DHT22;68121;52.404;5.318;2023-04-15T01:21:10;9.20;57.80
78779;DHT22;68121;52.404;5.318;2023-04-15T01:23:37;9.20;57.80
78779;DHT22;68121;52.404;5.318;2023-04-15T01:26:04;9.10;57.90
78779;DHT22;68121;52.404;5.318;2023-04-15T01:28:30;9.00;58.00
78779;DHT22;68121;52.404;5.318;2023-04-15T01:31:12;9.00;58.10
78779;DHT22;68121;52.404;5.318;2023-04-15T01:33:39;8.90;58.30
78779;DHT22;68121;52.404;5.318;2023-04-15T01:36:06;8.90;58.30
78779;DHT22;68121;52.404;5.318;2023-04-15T01:38:36;8.90;58.40
78779;DHT22;68121;52.404;5.318;2023-04-15T01:41:02;8.80;58.50
78779;DHT22;68121;52.404;5.318;2023-04-15T01:43:34;8.80;58.60
78779;DHT22;68121;52.404;5.318;2023-04-15T01:46:01;8.80;58.70
78779;DHT22;68121;52.404;5.318;2023-04-15T01:48:27;8.80;58.80
78779;DHT22;68121;52.404;5.318;2023-04-15T01:50:54;8.80;58.90
78779;DHT22;68121;52.404;5.318;2023-04-15T01:53:23;8.80;58.90
78779;DHT22;68121;52.404;5.318;2023-04-15T01:55:50;8.70;59.00
78779;DHT22;68121;52.404;5.318;2023-04-15T01:58:17;8.70;59.10
78779;DHT22;68121;52.404;5.318;2023-04-15T02:00:43;8.60;59.10
78779;DHT22;68121;52.404;5.318;2023-04-15T02:03:10;8.60;59.20
78779;DHT22;68121;52.404;5.318;2023-04-15T02:05:36;8.60;59.30
78779;DHT22;68121;52.404;5.318;2023-04-15T02:08:02;8.60;59.30
78779;DHT22;68121;52.404;5.318;2023-04-15T02:10:28;8.60;59.40
78779;DHT22;68121;52.404;5.318;2023-04-15T02:12:55;8.60;59.50
78779;DHT22;68121;52.404;5.318;2023-04-15T02:15:21;8.60;59.50
78779;DHT22;68121;52.404;5.318;2023-04-15T02:17:47;8.60;59.60
78779;DHT22;68121;52.404;5.318;2023-04-15T02:20:19;8.50;59.70
78779;DHT22;68121;52.404;5.318;2023-04-15T02:22:46;8.50;59.80
78779;DHT22;68121;52.404;5.318;2023-04-15T02:25:13;8.40;59.80
78779;DHT22;68121;52.404;5.318;2023-04-15T02:27:39;8.40;59.90
78779;DHT22;68121;52.404;5.318;2023-04-15T02:30:07;8.40;60.00
78779;DHT22;68121;52.404;5.318;2023-04-15T02:32:34;8.30;60.10
78779;DHT22;68121;52.404;5.318;2023-04-15T02:35:04;8.30;60.10
78779;DHT22;68121;52.404;5.318;2023-04-15T02:37:31;8.20;60.30
78779;DHT22;68121;52.404;5.318;2023-04-15T02:39:57;8.20;60.30
78779;DHT22;68121;52.404;5.318;2023-04-15T02:42:23;8.20;60.40
78779;DHT22;68121;52.404;5.318;2023-04-15T02:44:52;8.10;60.50
78779;DHT22;68121;52.404;5.318;2023-04-15T02:47:19;8.10;60.60
78779;DHT22;68121;52.404;5.318;2023-04-15T02:49:45;8.10;60.60
78779;DHT22;68121;52.404;5.318;2023-04-15T02:52:11;8.10;60.70
78779;DHT22;68121;52.404;5.318;2023-04-15T02:54:38;8.00;60.80
78779;DHT22;68121;52.404;5.318;2023-04-15T02:57:04;8.00;60.90
78779;DHT22;68121;52.404;5.318;2023-04-15T02:59:31;8.00;60.90
78779;DHT22;68121;52.404;5.318;2023-04-15T03:01:57;8.00;61.00
78779;DHT22;68121;52.404;5.318;2023-04-15T03:04:26;8.00;61.10
78779;DHT22;68121;52.404;5.318;2023-04-15T03:06:56;7.90;61.20
78779;DHT22;68121;52.404;5.318;2023-04-15T03:09:22;7.90;61.30
78779;DHT22;68121;52.404;5.318;2023-04-15T03:11:48;7.80;61.30
78779;DHT22;68121;52.404;5.318;2023-04-15T03:14:15;7.80;61.40
78779;DHT22;68121;52.404;5.318;2023-04-15T03:16:41;7.80;61.50
78779;DHT22;68121;52.404;5.318;2023-04-15T03:19:07;7.80;61.60
78779;DHT22;68121;52.404;5.318;2023-04-15T03:21:33;7.80;61.70
78779;DHT22;68121;52.404;5.318;2023-04-15T03:23:59;7.80;61.80
78779;DHT22;68121;52.404;5.318;2023-04-15T03:26:27;7.70;61.80
78779;DHT22;68121;52.404;5.318;2023-04-15T03:28:54;7.70;61.90
78779;DHT22;68121;52.404;5.318;2023-04-15T03:31:20;7.60;62.00
78779;DHT22;68121;52.404;5.318;2023-04-15T03:33:46;7.60;62.10
78779;DHT22;68121;52.404;5.318;2023-04-15T03:36:12;7.60;62.10
78779;DHT22;68121;52.404;5.318;2023-04-15T03:38:38;7.50;62.20
78779;DHT22;68121;52.404;5.318;2023-04-15T03:41:04;7.50;62.30
78779;DHT22;68121;52.404;5.318;2023-04-15T03:43:30;7.50;62.30
78779;DHT22;68121;52.404;5.318;2023-04-15T03:45:56;7.50;62.40
78779;DHT22;68121;52.404;5.318;2023-04-15T03:48:22;7.50;62.50
78779;DHT22;68121;52.404;5.318;2023-04-15T03:50:48;7.50;62.50
78779;DHT22;68121;52.404;5.318;2023-04-15T03:53:15;7.50;62.60
78779;DHT22;68121;52.404;5.318;2023-04-15T03:55:41;7.50;62.60
78779;DHT22;68121;52.404;5.318;2023-04-15T03:58:07;7.50;62.60
78779;DHT22;68121;52.404;5.318;2023-04-15T04:00:34;7.50;62.80
78779;DHT22;68121;52.404;5.318;2023-04-15T04:03:00;7.40;62.80
78779;DHT22;68121;52.404;5.318;2023-04-15T04:05:26;7.50;62.80
78779;DHT22;68121;52.404;5.318;2023-04-15T04:07:52;7.40;62.90
78779;DHT22;68121;52.404;5.318;2023-04-15T04:10:18;7.40;62.90
78779;DHT22;68121;52.404;5.318;2023-04-15T04:12:44;7.40;63.00
78779;DHT22;68121;52.404;5.318;2023-04-15T04:15:10;7.30;63.10
78779;DHT22;68121;52.404;5.318;2023-04-15T04:17:37;7.30;63.20
78779;DHT22;68121;52.404;5.318;2023-04-15T04:20:03;7.30;63.30
78779;DHT22;68121;52.404;5.318;2023-04-15T04:22:30;7.20;63.30
78779;DHT22;68121;52.404;5.318;2023-04-15T04:24:56;7.20;63.30
78779;DHT22;68121;52.404;5.318;2023-04-15T04:27:24;7.20;63.40
78779;DHT22;68121;52.404;5.318;2023-04-15T04:29:51;7.20;63.50
78779;DHT22;68121;52.404;5.318;2023-04-15T04:32:17;7.20;63.50
78779;DHT22;68121;52.404;5.318;2023-04-15T04:34:43;7.20;63.60
78779;DHT22;68121;52.404;5.318;2023-04-15T04:37:09;7.20;63.70
78779;DHT22;68121;52.404;5.318;2023-04-15T04:39:35;7.20;63.70
78779;DHT22;68121;52.404;5.318;2023-04-15T04:42:01;7.10;63.80
78779;DHT22;68121;52.404;5.318;2023-04-15T04:44:27;7.10;63.80
78779;DHT22;68121;52.404;5.318;2023-04-15T04:46:53;7.10;63.90
78779;DHT22;68121;52.404;5.318;2023-04-15T04:49:19;7.10;63.90
78779;DHT22;68121;52.404;5.318;2023-04-15T04:51:45;7.10;64.00
78779;DHT22;68121;52.404;5.318;2023-04-15T04:54:13;7.00;64.10
78779;DHT22;68121;52.404;5.318;2023-04-15T04:56:39;7.00;64.10
78779;DHT22;68121;52.404;5.318;2023-04-15T04:59:05;7.00;64.20
78779;DHT22;68121;52.404;5.318;2023-04-15T05:01:32;7.00;64.30
78779;DHT22;68121;52.404;5.318;2023-04-15T05:03:59;7.00;64.40
78779;DHT22;68121;52.404;5.318;2023-04-15T05:06:25;6.90;64.40
78779;DHT22;68121;52.404;5.318;2023-04-15T05:08:51;6.90;64.60
78779;DHT22;68121;52.404;5.318;2023-04-15T05:11:17;6.90;64.60
78779;DHT22;68121;52.404;5.318;2023-04-15T05:13:43;6.90;64.70
78779;DHT22;68121;52.404;5.318;2023-04-15T05:16:09;6.90;64.70
78779;DHT22;68121;52.404;5.318;2023-04-15T05:18:35;6.90;64.80
78779;DHT22;68121;52.404;5.318;2023-04-15T05:21:02;6.90;64.80
78779;DHT22;68121;52.404;5.318;2023-04-15T05:23:29;7.00;64.80
78779;DHT22;68121;52.404;5.318;2023-04-15T05:25:55;7.00;64.90
78779;DHT22;68121;52.404;5.318;2023-04-15T05:28:21;7.00;64.90
78779;DHT22;68121;52.404;5.318;2023-04-15T05:30:47;7.00;65.00
78779;DHT22;68121;52.404;5.318;2023-04-15T05:33:13;7.00;65.00
78779;DHT22;68121;52.404;5.318;2023-04-15T05:35:39;7.10;65.00
78779;DHT22;68121;52.404;5.318;2023-04-15T05:38:05;7.20;64.90
78779;DHT22;68121;52.404;5.318;2023-04-15T05:40:32;7.20;64.80
78779;DHT22;68121;52.404;5.318;2023-04-15T05:42:58;7.30;64.80
78779;DHT22;68121;52.404;5.318;2023-04-15T05:45:24;7.20;64.80
78779;DHT22;68121;52.404;5.318;2023-04-15T05:47:50;7.20;64.90
78779;DHT22;68121;52.404;5.318;2023-04-15T05:50:19;7.20;65.00
78779;DHT22;68121;52.404;5.318;2023-04-15T05:52:46;7.20;65.10
78779;DHT22;68121;52.404;5.318;2023-04-15T05:55:12;7.20;65.20
78779;DHT22;68121;52.404;5.318;2023-04-15T05:57:39;7.20;65.30
78779;DHT22;68121;52.404;5.318;2023-04-15T06:00:05;7.20;65.40
78779;DHT22;68121;52.404;5.318;2023-04-15T06:02:32;7.20;65.40
78779;DHT22;68121;52.404;5.318;2023-04-15T06:04:58;7.20;65.50
78779;DHT22;68121;52.404;5.318;2023-04-15T06:07:24;7.20;65.50
78779;DHT22;68121;52.404;5.318;2023-04-15T06:09:50;7.20;65.60
78779;DHT22;68121;52.404;5.318;2023-04-15T06:12:16;7.20;65.70
78779;DHT22;68121;52.404;5.318;2023-04-15T06:14:42;7.20;65.70
78779;DHT22;68121;52.404;5.318;2023-04-15T06:17:08;7.20;65.70
78779;DHT22;68121;52.404;5.318;2023-04-15T06:19:34;7.20;65.80
78779;DHT22;68121;52.404;5.318;2023-04-15T06:22:02;7.20;65.80
78779;DHT22;68121;52.404;5.318;2023-04-15T06:24:28;7.20;65.80
78779;DHT22;68121;52.404;5.318;2023-04-15T06:26:54;7.20;65.80
78779;DHT22;68121;52.404;5.318;2023-04-15T06:29:20;7.30;65.90
78779;DHT22;68121;52.404;5.318;2023-04-15T06:31:47;7.40;65.90
78779;DHT22;68121;52.404;5.318;2023-04-15T06:34:13;7.40;65.90
78779;DHT22;68121;52.404;5.318;2023-04-15T06:36:39;7.50;65.80
78779;DHT22;68121;52.404;5.318;2023-04-15T06:39:05;7.50;65.80
78779;DHT22;68121;52.404;5.318;2023-04-15T06:41:32;7.60;65.80
78779;DHT22;68121;52.404;5.318;2023-04-15T06:43:59;7.80;65.70
78779;DHT22;68121;52.404;5.318;2023-04-15T06:46:25;7.80;65.70
78779;DHT22;68121;52.404;5.318;2023-04-15T06:48:51;8.00;65.60
78779;DHT22;68121;52.404;5.318;2023-04-15T06:51:17;8.10;65.60
78779;DHT22;68121;52.404;5.318;2023-04-15T06:53:43;8.20;65.40
78779;DHT22;68121;52.404;5.318;2023-04-15T06:56:09;8.40;65.40
78779;DHT22;68121;52.404;5.318;2023-04-15T06:58:35;8.50;65.30
78779;DHT22;68121;52.404;5.318;2023-04-15T07:01:01;8.70;65.30
78779;DHT22;68121;52.404;5.318;2023-04-15T07:03:28;8.90;65.00
78779;DHT22;68121;52.404;5.318;2023-04-15T07:05:55;9.20;64.80
78779;DHT22;68121;52.404;5.318;2023-04-15T07:08:21;9.20;64.70
78779;DHT22;68121;52.404;5.318;2023-04-15T07:10:47;9.40;64.50
78779;DHT22;68121;52.404;5.318;2023-04-15T07:13:13;9.50;64.40
78779;DHT22;68121;52.404;5.318;2023-04-15T07:15:40;9.70;64.30
78779;DHT22;68121;52.404;5.318;2023-04-15T07:18:06;9.80;64.10
78779;DHT22;68121;52.404;5.318;2023-04-15T07:20:32;9.90;64.00
78779;DHT22;68121;52.404;5.318;2023-04-15T07:22:58;10.10;63.80
78779;DHT22;68121;52.404;5.318;2023-04-15T07:25:24;10.30;63.50
78779;DHT22;68121;52.404;5.318;2023-04-15T07:27:51;10.40;63.20
78779;DHT22;68121;52.404;5.318;2023-04-15T07:30:17;10.50;63.00
78779;DHT22;68121;52.404;5.318;2023-04-15T07:32:43;10.70;62.80
78779;DHT22;68121;52.404;5.318;2023-04-15T07:35:09;10.70;62.50
78779;DHT22;68121;52.404;5.318;2023-04-15T07:37:36;10.90;62.50
78779;DHT22;68121;52.404;5.318;2023-04-15T07:40:02;11.00;62.20
78779;DHT22;68121;52.404;5.318;2023-04-15T07:42:30;11.10;62.10
78779;DHT22;68121;52.404;5.318;2023-04-15T07:44:56;11.20;61.90
78779;DHT22;68121;52.404;5.318;2023-04-15T07:47:22;11.30;61.80
78779;DHT22;68121;52.404;5.318;2023-04-15T07:49:48;11.50;61.50
78779;DHT22;68121;52.404;5.318;2023-04-15T07:52:16;11.50;61.20
78779;DHT22;68121;52.404;5.318;2023-04-15T07:54:42;11.70;61.00
78779;DHT22;68121;52.404;5.318;2023-04-15T07:57:08;11.80;60.90
78779;DHT22;68121;52.404;5.318;2023-04-15T07:59:34;11.90;60.70
78779;DHT22;68121;52.404;5.318;2023-04-15T08:02:00;12.10;60.50
78779;DHT22;68121;52.404;5.318;2023-04-15T08:04:27;12.10;60.20
78779;DHT22;68121;52.404;5.318;2023-04-15T08:06:53;12.10;60.10
78779;DHT22;68121;52.404;5.318;2023-04-15T08:09:19;12.20;59.90
78779;DHT22;68121;52.404;5.318;2023-04-15T08:11:48;12.10;59.60
78779;DHT22;68121;52.404;5.318;2023-04-15T08:14:14;12.00;59.60
78779;DHT22;68121;52.404;5.318;2023-04-15T08:16:40;12.10;59.60
78779;DHT22;68121;52.404;5.318;2023-04-15T08:19:06;12.20;59.40
78779;DHT22;68121;52.404;5.318;2023-04-15T08:21:32;12.20;59.20
78779;DHT22;68121;52.404;5.318;2023-04-15T08:23:58;12.30;59.10
78779;DHT22;68121;52.404;5.318;2023-04-15T08:26:25;12.40;59.10
78779;DHT22;68121;52.404;5.318;2023-04-15T08:28:51;12.50;59.00
78779;DHT22;68121;52.404;5.318;2023-04-15T08:31:18;12.80;58.90
78779;DHT22;68121;52.404;5.318;2023-04-15T08:33:44;12.90;58.50
78779;DHT22;68121;52.404;5.318;2023-04-15T08:36:11;12.90;58.20
78779;DHT22;68121;52.404;5.318;2023-04-15T08:38:38;13.00;58.10
78779;DHT22;68121;52.404;5.318;2023-04-15T08:41:22;12.90;58.00
78779;DHT22;68121;52.404;5.318;2023-04-15T08:46:20;12.90;57.60
78779;DHT22;68121;52.404;5.318;2023-04-15T08:48:47;13.00;57.50
78779;DHT22;68121;52.404;5.318;2023-04-15T08:51:14;13.00;57.30
78779;DHT22;68121;52.404;5.318;2023-04-15T08:53:43;13.00;57.20
78779;DHT22;68121;52.404;5.318;2023-04-15T08:56:10;13.10;57.20
78779;DHT22;68121;52.404;5.318;2023-04-15T08:58:37;13.20;57.20
78779;DHT22;68121;52.404;5.318;2023-04-15T09:01:03;13.30;57.20
78779;DHT22;68121;52.404;5.318;2023-04-15T09:03:29;13.30;57.30
78779;DHT22;68121;52.404;5.318;2023-04-15T09:05:56;13.30;57.20
78779;DHT22;68121;52.404;5.318;2023-04-15T09:08:23;13.10;57.30
78779;DHT22;68121;52.404;5.318;2023-04-15T09:10:49;13.10;57.40
78779;DHT22;68121;52.404;5.318;2023-04-15T09:13:17;13.00;57.40
78779;DHT22;68121;52.404;5.318;2023-04-15T09:15:43;13.00;57.50
78779;DHT22;68121;52.404;5.318;2023-04-15T09:18:29;13.10;57.60
78779;DHT22;68121;52.404;5.318;2023-04-15T09:21:09;13.30;57.60
78779;DHT22;68121;52.404;5.318;2023-04-15T09:23:38;13.50;57.30
78779;DHT22;68121;52.404;5.318;2023-04-15T09:26:04;13.50;57.30
78779;DHT22;68121;52.404;5.318;2023-04-15T09:28:31;13.40;57.40
78779;DHT22;68121;52.404;5.318;2023-04-15T09:30:58;13.50;57.40
78779;DHT22;68121;52.404;5.318;2023-04-15T09:33:26;13.50;57.30
78779;DHT22;68121;52.404;5.318;2023-04-15T09:36:00;13.60;57.30
78779;DHT22;68121;52.404;5.318;2023-04-15T09:38:27;13.50;57.40
78779;DHT22;68121;52.404;5.318;2023-04-15T09:40:53;13.40;57.70
78779;DHT22;68121;52.404;5.318;2023-04-15T09:43:19;13.30;58.10
78779;DHT22;68121;52.404;5.318;2023-04-15T09:45:52;13.10;58.20
78779;DHT22;68121;52.404;5.318;2023-04-15T09:48:24;13.10;58.50
78779;DHT22;68121;52.404;5.318;2023-04-15T09:50:52;13.00;58.70
78779;DHT22;68121;52.404;5.318;2023-04-15T09:53:23;13.00;58.70
78779;DHT22;68121;52.404;5.318;2023-04-15T09:55:57;13.00;59.00
78779;DHT22;68121;52.404;5.318;2023-04-15T09:58:24;13.00;59.10
78779;DHT22;68121;52.404;5.318;2023-04-15T10:00:52;13.00;59.20
78779;DHT22;68121;52.404;5.318;2023-04-15T10:03:20;13.10;59.40
78779;DHT22;68121;52.404;5.318;2023-04-15T10:05:51;13.10;59.20
78779;DHT22;68121;52.404;5.318;2023-04-15T10:08:22;13.10;59.20
78779;DHT22;68121;52.404;5.318;2023-04-15T10:10:50;13.00;59.40
78779;DHT22;68121;52.404;5.318;2023-04-15T10:13:21;13.00;59.50
78779;DHT22;68121;52.404;5.318;2023-04-15T10:15:51;12.90;59.60
78779;DHT22;68121;52.404;5.318;2023-04-15T10:18:20;13.00;59.70
78779;DHT22;68121;52.404;5.318;2023-04-15T10:20:48;13.00;59.80
78779;DHT22;68121;52.404;5.318;2023-04-15T10:23:15;13.00;59.90
78779;DHT22;68121;52.404;5.318;2023-04-15T10:25:42;13.00;59.80
78779;DHT22;68121;52.404;5.318;2023-04-15T10:28:09;13.10;59.80
78779;DHT22;68121;52.404;5.318;2023-04-15T10:30:36;13.10;59.80
78779;DHT22;68121;52.404;5.318;2023-04-15T10:33:03;13.10;59.80
78779;DHT22;68121;52.404;5.318;2023-04-15T10:35:31;13.10;59.80
78779;DHT22;68121;52.404;5.318;2023-04-15T10:37:58;13.20;59.70
78779;DHT22;68121;52.404;5.318;2023-04-15T10:40:29;13.30;59.10
78779;DHT22;68121;52.404;5.318;2023-04-15T10:43:02;13.30;58.50
78779;DHT22;68121;52.404;5.318;2023-04-15T10:45:36;13.50;58.20
78779;DHT22;68121;52.404;5.318;2023-04-15T10:48:05;13.60;58.00
78779;DHT22;68121;52.404;5.318;2023-04-15T10:50:32;13.60;57.70
78779;DHT22;68121;52.404;5.318;2023-04-15T10:53:02;13.70;57.50
78779;DHT22;68121;52.404;5.318;2023-04-15T10:55:32;13.70;57.40
78779;DHT22;68121;52.404;5.318;2023-04-15T10:57:59;13.70;57.40
78779;DHT22;68121;52.404;5.318;2023-04-15T11:00:30;13.70;57.40
78779;DHT22;68121;52.404;5.318;2023-04-15T11:03:07;13.60;57.50
78779;DHT22;68121;52.404;5.318;2023-04-15T11:05:49;13.60;57.70
78779;DHT22;68121;52.404;5.318;2023-04-15T11:08:16;13.50;57.60
78779;DHT22;68121;52.404;5.318;2023-04-15T11:15:39;13.50;57.70
78779;DHT22;68121;52.404;5.318;2023-04-15T11:20:40;13.30;58.20
78779;DHT22;68121;52.404;5.318;2023-04-15T11:23:06;13.40;58.20
78779;DHT22;68121;52.404;5.318;2023-04-15T11:25:34;13.60;58.00
78779;DHT22;68121;52.404;5.318;2023-04-15T11:28:01;13.80;57.70
78779;DHT22;68121;52.404;5.318;2023-04-15T11:30:32;13.80;57.60
78779;DHT22;68121;52.404;5.318;2023-04-15T11:33:00;13.80;57.70
78779;DHT22;68121;52.404;5.318;2023-04-15T11:35:27;13.90;57.80
78779;DHT22;68121;52.404;5.318;2023-04-15T11:37:53;14.00;57.60
78779;DHT22;68121;52.404;5.318;2023-04-15T11:40:28;14.00;57.30
78779;DHT22;68121;52.404;5.318;2023-04-15T11:43:04;14.00;57.30
78779;DHT22;68121;52.404;5.318;2023-04-15T11:45:30;14.00;57.20
78779;DHT22;68121;52.404;5.318;2023-04-15T11:48:06;14.10;57.20
78779;DHT22;68121;52.404;5.318;2023-04-15T11:50:33;14.20;57.00
78779;DHT22;68121;52.404;5.318;2023-04-15T11:53:04;14.20;56.90
78779;DHT22;68121;52.404;5.318;2023-04-15T11:55:50;14.10;57.00
78779;DHT22;68121;52.404;5.318;2023-04-15T11:58:22;14.10;57.00
78779;DHT22;68121;52.404;5.318;2023-04-15T12:06:21;13.70;57.30
78779;DHT22;68121;52.404;5.318;2023-04-15T12:08:59;13.50;57.60
78779;DHT22;68121;52.404;5.318;2023-04-15T12:13:57;13.30;58.00
78779;DHT22;68121;52.404;5.318;2023-04-15T12:16:24;13.30;58.20
78779;DHT22;68121;52.404;5.318;2023-04-15T12:18:52;13.10;58.40
78779;DHT22;68121;52.404;5.318;2023-04-15T12:21:21;13.10;58.60
78779;DHT22;68121;52.404;5.318;2023-04-15T12:23:49;13.10;58.60
78779;DHT22;68121;52.404;5.318;2023-04-15T12:26:26;13.10;58.60
78779;DHT22;68121;52.404;5.318;2023-04-15T12:28:54;13.20;58.80
78779;DHT22;68121;52.404;5.318;2023-04-15T12:31:21;13.30;58.90
78779;DHT22;68121;52.404;5.318;2023-04-15T12:33:48;13.20;58.90
78779;DHT22;68121;52.404;5.318;2023-04-15T12:36:14;13.10;59.00
78779;DHT22;68121;52.404;5.318;2023-04-15T12:38:41;12.90;59.10
78779;DHT22;68121;52.404;5.318;2023-04-15T12:41:07;12.80;59.20
78779;DHT22;68121;52.404;5.318;2023-04-15T12:43:33;12.70;59.50
78779;DHT22;68121;52.404;5.318;2023-04-15T12:45:59;12.70;59.60
78779;DHT22;68121;52.404;5.318;2023-04-15T12:48:25;12.70;59.60
78779;DHT22;68121;52.404;5.318;2023-04-15T12:50:51;12.50;59.80
78779;DHT22;68121;52.404;5.318;2023-04-15T12:53:17;12.50;59.80
78779;DHT22;68121;52.404;5.318;2023-04-15T12:55:43;12.50;59.70
78779;DHT22;68121;52.404;5.318;2023-04-15T12:58:09;12.40;59.80
78779;DHT22;68121;52.404;5.318;2023-04-15T13:00:36;12.30;59.90
78779;DHT22;68121;52.404;5.318;2023-04-15T13:03:03;12.20;60.10
78779;DHT22;68121;52.404;5.318;2023-04-15T13:05:29;12.20;60.10
78779;DHT22;68121;52.404;5.318;2023-04-15T13:07:55;12.10;60.10
78779;DHT22;68121;52.404;5.318;2023-04-15T13:10:21;12.00;60.30
78779;DHT22;68121;52.404;5.318;2023-04-15T13:12:48;11.90;60.50
78779;DHT22;68121;52.404;5.318;2023-04-15T13:15:21;11.90;60.60
78779;DHT22;68121;52.404;5.318;2023-04-15T13:17:48;11.90;60.70
78779;DHT22;68121;52.404;5.318;2023-04-15T13:20:14;11.80;60.70
78779;DHT22;68121;52.404;5.318;2023-04-15T13:22:41;11.70;60.80
78779;DHT22;68121;52.404;5.318;2023-04-15T13:25:07;11.50;61.10
78779;DHT22;68121;52.404;5.318;2023-04-15T13:27:33;11.50;61.30
78779;DHT22;68121;52.404;5.318;2023-04-15T13:30:00;11.30;61.60
78779;DHT22;68121;52.404;5.318;2023-04-15T13:32:26;11.30;61.80
78779;DHT22;68121;52.404;5.318;2023-04-15T13:34:55;11.30;61.90
78779;DHT22;68121;52.404;5.318;2023-04-15T13:37:28;11.40;62.20
78779;DHT22;68121;52.404;5.318;2023-04-15T13:39:54;11.50;62.30
78779;DHT22;68121;52.404;5.318;2023-04-15T13:42:22;11.50;62.30
78779;DHT22;68121;52.404;5.318;2023-04-15T13:44:49;11.40;62.40
78779;DHT22;68121;52.404;5.318;2023-04-15T13:47:17;11.30;62.50
78779;DHT22;68121;52.404;5.318;2023-04-15T13:49:43;11.30;62.70
78779;DHT22;68121;52.404;5.318;2023-04-15T13:52:10;11.20;62.70
78779;DHT22;68121;52.404;5.318;2023-04-15T13:54:37;11.20;62.60
78779;DHT22;68121;52.404;5.318;2023-04-15T13:57:03;11.20;62.50
78779;DHT22;68121;52.404;5.318;2023-04-15T13:59:29;11.20;62.30
78779;DHT22;68121;52.404;5.318;2023-04-15T14:01:56;11.20;62.30
78779;DHT22;68121;52.404;5.318;2023-04-15T14:04:22;11.20;62.20
78779;DHT22;68121;52.404;5.318;2023-04-15T14:06:48;11.10;62.10
78779;DHT22;68121;52.404;5.318;2023-04-15T14:09:14;11.10;62.00
78779;DHT22;68121;52.404;5.318;2023-04-15T14:11:40;11.10;61.90
78779;DHT22;68121;52.404;5.318;2023-04-15T14:14:06;11.10;62.00
78779;DHT22;68121;52.404;5.318;2023-04-15T14:16:33;11.00;62.10
78779;DHT22;68121;52.404;5.318;2023-04-15T14:19:00;10.90;62.20
78779;DHT22;68121;52.404;5.318;2023-04-15T14:21:26;10.80;62.40
78779;DHT22;68121;52.404;5.318;2023-04-15T14:23:53;10.80;62.50
78779;DHT22;68121;52.404;5.318;2023-04-15T14:26:19;10.80;62.70
78779;DHT22;68121;52.404;5.318;2023-04-15T14:28:45;10.80;62.70
78779;DHT22;68121;52.404;5.318;2023-04-15T14:31:13;10.70;62.80
78779;DHT22;68121;52.404;5.318;2023-04-15T14:33:39;10.70;62.80
78779;DHT22;68121;52.404;5.318;2023-04-15T14:36:06;10.60;62.80
78779;DHT22;68121;52.404;5.318;2023-04-15T14:38:35;10.60;62.80
78779;DHT22;68121;52.404;5.318;2023-04-15T14:41:04;10.60;62.90
78779;DHT22;68121;52.404;5.318;2023-04-15T14:43:30;10.50;63.10
78779;DHT22;68121;52.404;5.318;2023-04-15T14:45:56;10.50;63.40
78779;DHT22;68121;52.404;5.318;2023-04-15T14:48:22;10.40;63.40
78779;DHT22;68121;52.404;5.318;2023-04-15T14:50:48;10.30;63.50
78779;DHT22;68121;52.404;5.318;2023-04-15T14:53:14;10.30;63.50
78779;DHT22;68121;52.404;5.318;2023-04-15T14:55:40;10.20;63.50
78779;DHT22;68121;52.404;5.318;2023-04-15T14:58:06;10.20;63.60
78779;DHT22;68121;52.404;5.318;2023-04-15T15:00:36;10.10;63.60
78779;DHT22;68121;52.404;5.318;2023-04-15T15:03:05;10.10;63.70
78779;DHT22;68121;52.404;5.318;2023-04-15T15:05:55;10.10;63.70
78779;DHT22;68121;52.404;5.318;2023-04-15T15:08:22;10.10;63.90
78779;DHT22;68121;52.404;5.318;2023-04-15T15:10:48;10.00;64.00
78779;DHT22;68121;52.404;5.318;2023-04-15T15:13:15;10.00;64.10
78779;DHT22;68121;52.404;5.318;2023-04-15T15:15:41;10.00;64.20
78779;DHT22;68121;52.404;5.318;2023-04-15T15:18:07;9.90;64.20
78779;DHT22;68121;52.404;5.318;2023-04-15T15:20:33;9.80;64.20
78779;DHT22;68121;52.404;5.318;2023-04-15T15:23:00;9.80;64.20
78779;DHT22;68121;52.404;5.318;2023-04-15T15:25:27;9.80;64.30
78779;DHT22;68121;52.404;5.318;2023-04-15T15:27:53;9.80;64.50
78779;DHT22;68121;52.404;5.318;2023-04-15T15:30:19;9.80;64.60
78779;DHT22;68121;52.404;5.318;2023-04-15T15:32:45;9.80;64.70
78779;DHT22;68121;52.404;5.318;2023-04-15T15:35:11;9.70;64.70
78779;DHT22;68121;52.404;5.318;2023-04-15T15:37:37;9.70;64.60
78779;DHT22;68121;52.404;5.318;2023-04-15T15:40:04;9.70;64.60
78779;DHT22;68121;52.404;5.318;2023-04-15T15:42:30;9.70;64.60
78779;DHT22;68121;52.404;5.318;2023-04-15T15:44:57;9.70;64.60
78779;DHT22;68121;52.404;5.318;2023-04-15T15:47:23;9.70;64.50
78779;DHT22;68121;52.404;5.318;2023-04-15T15:49:51;9.70;64.40
78779;DHT22;68121;52.404;5.318;2023-04-15T15:52:18;9.70;64.40
78779;DHT22;68121;52.404;5.318;2023-04-15T15:54:44;9.70;64.40